Time;durP1;ratioP1;P1;durP2;ratioP2;P2;SDS_P1;SDS_P2;PMS_P1;PMS_P2;Temp;Humidity;BMP_temperature;BMP_pressure;BME280_temperature;BME280_humidity;BME280_pressure;Samples;Min_cycle;Max_cycle;Signal;HPM_P1;HPM_P2
2023/02/26 00:00:57;;;;;;;1.83;0.30;;;;;;;-1.70;38.85;101882.97;4967502;28;20089;-76
2023/02/26 00:03:22;;;;;;;2.22;0.20;;;;;;;-1.67;38.96;101883.03;4960194;28;20772;-77
2023/02/26 00:05:48;;;;;;;2.63;0.30;;;;;;;-1.61;38.94;101888.31;4961934;28;20042;-76
2023/02/26 00:08:13;;;;;;;2.60;0.10;;;;;;;-1.67;39.42;101888.16;4956662;28;20149;-76
2023/02/26 00:10:39;;;;;;;1.92;0.10;;;;;;;-1.84;40.19;101892.84;4954494;28;20039;-76
2023/02/26 00:13:05;;;;;;;4.22;0.30;;;;;;;-1.85;40.37;101902.19;4958049;28;20326;-75
2023/02/26 00:15:30;;;;;;;0.95;0.10;;;;;;;-1.70;40.29;101895.78;4944741;28;20042;-76
2023/02/26 00:18:09;;;;;;;1.08;0.10;;;;;;;-1.71;40.42;101901.72;4978465;28;20046;-75
2023/02/26 00:20:35;;;;;;;6.38;0.47;;;;;;;-1.65;40.60;101913.00;4976183;28;20959;-74
2023/02/26 00:23:02;;;;;;;2.60;0.10;;;;;;;-1.77;40.54;101916.94;4969227;28;20691;-71
2023/02/26 00:25:27;;;;;;;5.88;0.10;;;;;;;-1.73;40.36;101919.63;4958276;28;20065;-75
2023/02/26 00:27:53;;;;;;;5.47;0.13;;;;;;;-1.95;40.97;101915.59;4968487;28;20129;-75
2023/02/26 00:30:19;;;;;;;2.60;0.00;;;;;;;-1.57;40.08;101920.06;4973184;28;20158;-73
2023/02/26 00:32:45;;;;;;;2.70;0.10;;;;;;;-1.63;39.97;101920.75;4945941;28;20133;-73
2023/02/26 00:35:14;;;;;;;6.03;0.10;;;;;;;-1.64;39.93;101929.28;4951333;28;20117;-77
2023/02/26 00:38:11;;;;;;;2.45;0.17;;;;;;;-1.62;40.20;101927.59;4956535;28;20121;-74
2023/02/26 00:40:45;;;;;;;4.07;0.10;;;;;;;-1.68;40.23;101932.56;4957309;28;20030;-74
2023/02/26 00:43:23;;;;;;;6.03;0.03;;;;;;;-1.67;39.92;101930.03;4958763;28;20046;-74
2023/02/26 00:45:51;;;;;;;0.93;0.10;;;;;;;-1.61;39.96;101926.78;4974567;28;20717;-74
2023/02/26 00:48:27;;;;;;;1.88;0.10;;;;;;;-1.63;40.17;101938.69;4956837;28;20151;-74
2023/02/26 00:51:04;;;;;;;4.63;1.20;;;;;;;-1.73;40.25;101940.13;4966288;28;20612;-74
2023/02/26 00:53:57;;;;;;;1.15;0.10;;;;;;;-1.65;40.15;101943.75;4953445;28;20049;-74
2023/02/26 00:56:22;;;;;;;5.60;0.30;;;;;;;-1.84;40.43;101946.66;4973497;28;20046;-73
2023/02/26 00:58:48;;;;;;;0.95;0.35;;;;;;;-1.72;40.24;101948.69;4961930;28;20046;-73
2023/02/26 01:01:14;;;;;;;0.20;0.00;;;;;;;-1.88;40.45;101945.69;4990316;28;20041;-73
2023/02/26 01:03:40;;;;;;;1.50;0.00;;;;;;;-1.87;40.80;101946.53;4961659;28;20483;-73
2023/02/26 01:06:12;;;;;;;0.63;0.10;;;;;;;-1.97;41.19;101948.00;4965092;28;20507;-72
2023/02/26 01:09:06;;;;;;;1.80;0.00;;;;;;;-1.89;41.14;101954.22;4969052;28;20623;-73
2023/02/26 01:11:34;;;;;;;6.47;0.10;;;;;;;-1.96;41.23;101948.84;4956041;28;20137;-73
2023/02/26 01:14:01;;;;;;;0.30;0.00;;;;;;;-1.91;41.54;101960.97;4973518;28;20050;-72
2023/02/26 01:16:29;;;;;;;0.60;0.00;;;;;;;-1.88;41.32;101965.31;4946650;28;20388;-72
2023/02/26 01:19:06;;;;;;;1.20;0.20;;;;;;;-1.90;41.52;101969.53;4960632;28;20511;-72
2023/02/26 01:21:38;;;;;;;0.80;0.10;;;;;;;-1.88;41.37;101970.44;4948587;28;20396;-72
2023/02/26 01:24:10;;;;;;;1.05;0.05;;;;;;;-2.00;41.60;101965.81;4975396;28;20128;-72
2023/02/26 01:26:36;;;;;;;1.55;0.00;;;;;;;-1.92;41.40;101969.47;4970228;28;20034;-71
2023/02/26 01:29:02;;;;;;;1.73;0.00;;;;;;;-1.93;41.78;101967.75;4950212;28;20137;-72
2023/02/26 01:32:11;;;;;;;0.75;0.20;;;;;;;-1.82;41.51;101979.19;4937576;28;20031;-75
2023/02/26 01:34:55;;;;;;;3.60;0.20;;;;;;;-1.90;41.55;101972.97;4925120;28;20570;-75
2023/02/26 01:37:40;;;;;;;0.93;0.10;;;;;;;-2.07;42.17;101984.41;4954047;28;20053;-74
2023/02/26 01:40:33;;;;;;;0.57;0.00;;;;;;;-2.07;42.37;101979.28;4939369;28;20097;-74
2023/02/26 01:43:10;;;;;;;0.20;0.00;;;;;;;-2.00;42.36;101986.31;4947736;28;20175;-74
2023/02/26 01:45:47;;;;;;;3.33;0.10;;;;;;;-1.97;42.19;101994.09;4959785;28;20755;-73
2023/02/26 01:48:53;;;;;;;1.98;0.10;;;;;;;-2.13;42.50;101995.34;4948447;28;20535;-73
2023/02/26 01:51:41;;;;;;;1.83;0.17;;;;;;;-2.11;42.60;102000.50;4916327;28;20506;-74
2023/02/26 01:54:07;;;;;;;3.78;0.20;;;;;;;-2.13;42.45;102003.03;4936253;28;20046;-73
2023/02/26 01:56:35;;;;;;;1.95;0.20;;;;;;;-2.17;42.47;102002.88;4932382;28;20053;-71
2023/02/26 01:59:04;;;;;;;1.73;0.10;;;;;;;-2.13;42.46;102007.28;4945745;28;20416;-71
2023/02/26 02:01:36;;;;;;;0.82;0.10;;;;;;;-2.20;42.90;102006.22;4955273;28;20061;-71
2023/02/26 02:04:03;;;;;;;1.02;0.10;;;;;;;-2.15;42.77;102016.63;4948053;28;20178;-73
2023/02/26 02:06:29;;;;;;;2.20;0.00;;;;;;;-2.12;42.66;102022.69;4944081;28;20480;-74
2023/02/26 02:08:55;;;;;;;0.22;0.00;;;;;;;-2.14;42.79;102020.91;4965055;28;20038;-71
2023/02/26 02:11:21;;;;;;;4.43;0.08;;;;;;;-2.18;42.93;102021.63;4957568;28;20121;-75
2023/02/26 02:14:00;;;;;;;2.28;0.43;;;;;;;-2.33;43.48;102033.13;4944953;28;20046;-73
2023/02/26 02:16:37;;;;;;;3.03;0.10;;;;;;;-2.17;42.96;102033.63;4937251;28;20200;-79
2023/02/26 02:19:33;;;;;;;2.50;0.20;;;;;;;-2.34;43.71;102033.94;4948424;28;20054;-70
2023/02/26 02:22:08;;;;;;;3.58;0.30;;;;;;;-2.34;43.76;102039.06;4958763;28;20496;-75
2023/02/26 02:25:08;;;;;;;4.50;0.10;;;;;;;-2.36;43.89;102040.69;4945128;28;22072;-74
2023/02/26 02:27:46;;;;;;;4.60;0.60;;;;;;;-2.32;43.93;102045.09;4943867;28;20051;-75
2023/02/26 02:30:23;;;;;;;1.35;0.00;;;;;;;-2.30;44.06;102043.47;4949506;28;20045;-74
2023/02/26 02:32:57;;;;;;;0.50;0.00;;;;;;;-2.28;43.64;102046.94;4972246;28;20082;-74
2023/02/26 02:35:33;;;;;;;2.25;0.10;;;;;;;-2.37;43.81;102043.22;4961410;28;20329;-75
2023/02/26 02:38:08;;;;;;;1.15;0.00;;;;;;;-2.33;43.81;102048.50;4965195;28;20049;-76
2023/02/26 02:40:39;;;;;;;5.15;0.47;;;;;;;-2.29;43.71;102049.44;4973188;28;20034;-74
2023/02/26 02:43:19;;;;;;;0.25;0.00;;;;;;;-2.36;43.89;102056.06;4977652;28;20051;-75
2023/02/26 02:45:54;;;;;;;3.30;0.13;;;;;;;-2.37;43.80;102054.34;4928596;28;20035;-74
2023/02/26 02:48:32;;;;;;;3.22;0.00;;;;;;;-2.39;43.96;102050.84;4951700;28;20682;-75
2023/02/26 02:51:05;;;;;;;2.47;0.00;;;;;;;-2.54;44.50;102058.03;4946719;28;20042;-74
2023/02/26 02:53:46;;;;;;;9.65;0.22;;;;;;;-2.33;43.96;102057.88;4969573;28;20042;-75
2023/02/26 02:56:17;;;;;;;3.33;0.10;;;;;;;-2.40;44.48;102071.28;4963917;28;20039;-74
2023/02/26 02:58:53;;;;;;;6.03;0.60;;;;;;;-2.40;44.18;102073.84;4959649;28;20436;-75
2023/02/26 03:01:22;;;;;;;5.72;0.22;;;;;;;-2.33;44.36;102071.53;4974181;28;20058;-74
2023/02/26 03:03:53;;;;;;;1.40;0.30;;;;;;;-2.55;44.41;102074.22;4959396;28;20416;-73
2023/02/26 03:06:19;;;;;;;1.88;0.00;;;;;;;-2.34;44.36;102077.47;4971919;28;20049;-75
2023/02/26 03:08:49;;;;;;;1.30;0.00;;;;;;;-2.27;44.01;102089.69;4938943;28;20071;-74
2023/02/26 03:11:15;;;;;;;1.30;0.10;;;;;;;-2.21;43.93;102089.00;4956496;28;20676;-75
2023/02/26 03:13:41;;;;;;;2.15;0.00;;;;;;;-2.22;43.95;102095.81;4958192;28;20049;-74
2023/02/26 03:16:28;;;;;;;1.38;0.32;;;;;;;-2.16;43.58;102092.56;4948803;28;20054;-75
2023/02/26 03:19:29;;;;;;;1.27;0.00;;;;;;;-2.31;44.07;102097.19;4943774;28;20784;-74
2023/02/26 03:22:24;;;;;;;0.57;0.35;;;;;;;-2.36;44.39;102099.59;4956054;28;20124;-71
2023/02/26 03:25:13;;;;;;;0.88;0.20;;;;;;;-2.30;44.17;102098.94;4960650;28;20040;-72
2023/02/26 03:28:11;;;;;;;4.45;0.10;;;;;;;-2.25;44.19;102116.19;4946970;28;20050;-74
2023/02/26 03:30:54;;;;;;;1.33;0.10;;;;;;;-2.38;44.35;102111.50;4954838;28;20027;-75
2023/02/26 03:33:51;;;;;;;4.10;0.30;;;;;;;-2.34;44.21;102118.44;4955470;28;20500;-75
2023/02/26 03:36:22;;;;;;;0.35;0.10;;;;;;;-2.44;44.25;102126.66;4954867;28;20097;-75
2023/02/26 03:39:12;;;;;;;0.63;0.00;;;;;;;-2.50;44.50;102134.97;4963152;28;20190;-75
2023/02/26 03:41:44;;;;;;;2.10;0.10;;;;;;;-2.49;44.54;102141.88;4968636;28;20419;-75
2023/02/26 03:44:38;;;;;;;1.98;0.20;;;;;;;-2.45;44.04;102135.13;4959282;28;20061;-77
2023/02/26 03:47:09;;;;;;;3.22;0.03;;;;;;;-2.46;43.85;102138.53;4956889;28;20053;-76
2023/02/26 03:49:42;;;;;;;2.15;0.13;;;;;;;-2.60;43.65;102144.84;4961315;28;20065;-76
2023/02/26 03:52:08;;;;;;;1.88;0.10;;;;;;;-2.55;43.47;102151.88;4959017;28;20045;-76
2023/02/26 03:54:55;;;;;;;2.47;0.00;;;;;;;-2.48;43.32;102160.66;4958670;28;20046;-76
2023/02/26 03:57:44;;;;;;;0.98;0.10;;;;;;;-2.51;43.26;102161.41;4960392;28;20055;-75
2023/02/26 04:00:23;;;;;;;10.10;0.63;;;;;;;-2.34;42.74;102159.41;4965922;28;20515;-76
2023/02/26 04:03:00;;;;;;;0.20;0.10;;;;;;;-2.42;42.89;102168.56;4958538;28;20221;-75
2023/02/26 04:05:36;;;;;;;7.70;0.17;;;;;;;-2.34;42.23;102164.53;4950243;28;20042;-76
2023/02/26 04:08:02;;;;;;;3.88;0.40;;;;;;;-2.39;42.37;102173.75;4959405;28;20046;-76
2023/02/26 04:10:36;;;;;;;1.90;0.10;;;;;;;-2.41;42.48;102170.28;4950112;28;20038;-75
2023/02/26 04:13:02;;;;;;;1.23;0.15;;;;;;;-2.45;42.56;102178.66;4961721;28;20653;-75
2023/02/26 04:15:28;;;;;;;0.65;0.10;;;;;;;-2.40;42.72;102177.16;4964619;28;20030;-75
2023/02/26 04:17:53;;;;;;;0.10;0.00;;;;;;;-2.64;43.02;102184.84;4950543;28;20043;-76
2023/02/26 04:20:19;;;;;;;6.63;0.17;;;;;;;-2.47;42.87;102187.97;4932184;28;20031;-75
2023/02/26 04:22:44;;;;;;;0.22;0.00;;;;;;;-2.46;42.69;102192.28;4948593;28;20129;-75
2023/02/26 04:25:10;;;;;;;1.80;0.13;;;;;;;-2.41;42.46;102193.31;4958799;28;20027;-75
2023/02/26 04:27:38;;;;;;;1.25;0.10;;;;;;;-2.29;42.25;102196.31;4974843;28;20045;-76
2023/02/26 04:30:04;;;;;;;0.80;0.03;;;;;;;-2.29;41.98;102203.09;4964193;28;20029;-75
2023/02/26 04:32:31;;;;;;;4.90;0.22;;;;;;;-2.53;41.57;102200.59;4944495;28;20056;-76
2023/02/26 04:34:56;;;;;;;0.82;0.10;;;;;;;-2.61;40.78;102202.00;4957044;28;20031;-76
2023/02/26 04:37:22;;;;;;;4.07;0.10;;;;;;;-2.49;39.88;102200.75;4960860;28;20042;-75
2023/02/26 04:39:48;;;;;;;3.30;0.00;;;;;;;-2.44;39.39;102211.16;4971907;28;20119;-76
2023/02/26 04:42:13;;;;;;;3.92;0.00;;;;;;;-2.52;39.46;102215.97;4950356;28;20518;-73
2023/02/26 04:44:39;;;;;;;2.90;0.00;;;;;;;-2.31;39.11;102222.66;4961345;28;20030;-73
2023/02/26 04:47:05;;;;;;;3.13;0.00;;;;;;;-2.23;38.99;102221.25;4943133;28;20046;-73
2023/02/26 04:49:32;;;;;;;0.57;0.10;;;;;;;-2.23;39.26;102224.69;4924203;28;20131;-73
2023/02/26 04:51:58;;;;;;;2.22;0.10;;;;;;;-2.14;39.14;102231.81;4926233;28;20063;-72
2023/02/26 04:54:24;;;;;;;0.45;0.10;;;;;;;-2.15;39.11;102230.09;4958952;28;20110;-73
2023/02/26 04:56:50;;;;;;;1.95;0.10;;;;;;;-2.31;40.05;102231.25;4970833;28;20035;-72
2023/02/26 04:59:15;;;;;;;1.08;0.05;;;;;;;-2.26;39.93;102234.84;4961348;28;20038;-73
2023/02/26 05:01:41;;;;;;;2.40;0.20;;;;;;;-2.46;40.59;102240.94;4963003;28;20153;-74
2023/02/26 05:04:07;;;;;;;0.10;0.00;;;;;;;-2.38;40.61;102242.09;4935997;28;20035;-74
2023/02/26 05:06:33;;;;;;;1.23;0.00;;;;;;;-2.33;40.51;102239.69;4940159;28;20069;-74
2023/02/26 05:08:58;;;;;;;3.03;0.10;;;;;;;-2.28;40.08;102251.84;4965583;28;20712;-74
2023/02/26 05:11:24;;;;;;;1.60;0.20;;;;;;;-2.42;40.66;102251.34;4959899;28;20134;-72
2023/02/26 05:13:49;;;;;;;2.28;0.75;;;;;;;-2.33;40.36;102255.94;4923363;28;20074;-74
2023/02/26 05:16:16;;;;;;;4.90;0.00;;;;;;;-2.37;40.57;102250.66;4972603;28;20057;-73
2023/02/26 05:18:41;;;;;;;2.97;0.10;;;;;;;-2.14;40.37;102264.25;4968734;28;20452;-74
2023/02/26 05:21:07;;;;;;;0.65;0.08;;;;;;;-2.19;40.57;102265.78;4969550;28;20045;-75
2023/02/26 05:23:33;;;;;;;1.67;0.22;;;;;;;-2.15;40.39;102260.84;4955056;28;20070;-72
2023/02/26 05:25:58;;;;;;;0.05;0.00;;;;;;;-2.14;40.54;102265.13;4948930;28;20518;-71
2023/02/26 05:28:25;;;;;;;4.47;0.00;;;;;;;-2.23;40.69;102272.50;4955489;28;20050;-71
2023/02/26 05:30:51;;;;;;;2.70;0.00;;;;;;;-2.13;40.58;102273.72;4946726;28;20065;-72
2023/02/26 05:33:17;;;;;;;2.80;0.10;;;;;;;-2.12;40.79;102270.31;4947266;28;20073;-73
2023/02/26 05:35:42;;;;;;;5.05;0.10;;;;;;;-2.30;41.26;102271.41;4963262;28;20054;-72
2023/02/26 05:38:08;;;;;;;2.10;0.00;;;;;;;-2.13;41.14;102282.25;4976287;28;20763;-73
2023/02/26 05:40:33;;;;;;;0.17;0.00;;;;;;;-2.46;42.08;102276.78;4955516;28;20038;-73
2023/02/26 05:42:59;;;;;;;2.63;0.25;;;;;;;-2.04;41.13;102284.28;4966051;28;20039;-72
2023/02/26 05:45:24;;;;;;;0.55;0.00;;;;;;;-2.21;41.44;102274.28;4963505;28;20591;-71
2023/02/26 05:47:50;;;;;;;2.00;0.10;;;;;;;-2.06;41.33;102278.22;4962555;28;20050;-71
2023/02/26 05:50:15;;;;;;;2.13;0.10;;;;;;;-2.27;41.98;102284.34;4958370;28;20103;-73
2023/02/26 05:52:41;;;;;;;1.88;0.25;;;;;;;-2.22;42.08;102285.38;4962285;28;20515;-72
2023/02/26 05:55:07;;;;;;;1.65;0.00;;;;;;;-2.10;42.17;102286.59;4939595;28;20039;-74
2023/02/26 05:57:33;;;;;;;1.13;0.10;;;;;;;-2.21;43.08;102294.78;4956069;28;20352;-75
2023/02/26 05:59:58;;;;;;;6.22;0.15;;;;;;;-1.86;41.93;102297.72;4957302;28;20045;-76
2023/02/26 06:02:24;;;;;;;1.88;0.10;;;;;;;-1.81;41.87;102296.16;4958210;28;20069;-76
2023/02/26 06:04:49;;;;;;;1.27;0.08;;;;;;;-1.69;41.48;102290.56;4965412;28;20049;-75
2023/02/26 06:07:15;;;;;;;0.63;0.10;;;;;;;-1.64;41.54;102296.75;4945447;28;20125;-77
2023/02/26 06:09:40;;;;;;;0.30;0.10;;;;;;;-1.84;42.26;102301.19;4961508;28;20450;-77
2023/02/26 06:12:06;;;;;;;5.38;0.10;;;;;;;-2.05;42.34;102305.56;4959734;28;20054;-76
2023/02/26 06:14:32;;;;;;;4.10;0.30;;;;;;;-1.88;42.18;102309.59;4943169;28;20133;-75
2023/02/26 06:16:58;;;;;;;0.55;0.03;;;;;;;-1.87;42.48;102307.91;4958037;28;20172;-74
2023/02/26 06:19:26;;;;;;;3.70;0.00;;;;;;;-1.93;42.14;102308.56;4960679;28;20578;-71
2023/02/26 06:21:52;;;;;;;6.00;0.10;;;;;;;-2.13;42.39;102313.00;4956949;28;20049;-70
2023/02/26 06:24:17;;;;;;;2.13;0.10;;;;;;;-2.03;42.89;102322.72;4969219;28;20031;-79
2023/02/26 06:26:43;;;;;;;0.30;0.20;;;;;;;-1.82;41.99;102330.31;4951238;28;20049;-77
2023/02/26 06:29:08;;;;;;;3.05;0.10;;;;;;;-1.84;41.79;102324.28;4964787;28;20050;-72
2023/02/26 06:31:33;;;;;;;1.40;0.10;;;;;;;-1.76;41.42;102331.34;4955055;28;21580;-72
2023/02/26 06:33:59;;;;;;;0.00;0.00;;;;;;;-1.61;41.27;102334.44;4959237;28;20153;-75
2023/02/26 06:36:24;;;;;;;2.17;0.10;;;;;;;-1.83;41.06;102332.81;4960774;28;20041;-76
2023/02/26 06:38:50;;;;;;;1.92;0.10;;;;;;;-1.32;40.02;102331.97;4958973;28;20055;-73
2023/02/26 06:41:15;;;;;;;2.63;0.20;;;;;;;-1.47;40.06;102338.31;4957262;28;20062;-78
2023/02/26 06:43:41;;;;;;;1.15;0.25;;;;;;;-1.42;40.00;102338.47;4964099;28;20141;-79
2023/02/26 06:46:06;;;;;;;1.08;0.10;;;;;;;-1.33;40.00;102345.59;4970032;28;20062;-78
2023/02/26 06:48:32;;;;;;;2.20;0.20;;;;;;;-1.18;39.76;102343.53;4971494;28;20039;-79
2023/02/26 06:50:57;;;;;;;0.70;0.20;;;;;;;-0.95;39.43;102344.31;4979030;28;20034;-82
2023/02/26 06:53:23;;;;;;;2.78;0.10;;;;;;;-0.91;38.93;102345.28;4963972;28;20133;-76
2023/02/26 06:55:51;;;;;;;0.55;0.00;;;;;;;-0.91;38.92;102350.41;4960766;28;20043;-74
2023/02/26 06:58:17;;;;;;;1.65;0.00;;;;;;;-1.13;38.97;102357.38;4969497;28;20518;-73
2023/02/26 07:00:43;;;;;;;0.90;0.32;;;;;;;-0.98;38.77;102365.63;4946316;28;20898;-72
2023/02/26 07:03:12;;;;;;;2.75;0.10;;;;;;;-0.97;38.61;102371.66;4939589;28;20045;-72
2023/02/26 07:05:38;;;;;;;1.42;0.28;;;;;;;-0.83;38.84;102372.06;4940985;28;20041;-80
2023/02/26 07:08:04;;;;;;;2.15;0.10;;;;;;;-1.03;38.70;102377.44;4958418;28;20863;-79
2023/02/26 07:10:35;;;;;;;0.75;0.10;;;;;;;-0.81;38.73;102380.69;4960705;28;20513;-74
2023/02/26 07:13:00;;;;;;;3.03;0.20;;;;;;;-0.45;37.96;102380.06;4957735;28;20137;-76
2023/02/26 07:15:27;;;;;;;0.00;0.00;;;;;;;-0.43;38.20;102386.13;4964370;28;20102;-76
2023/02/26 07:17:52;;;;;;;0.15;0.00;;;;;;;-0.40;38.15;102391.34;4944613;28;20077;-76
2023/02/26 07:20:18;;;;;;;4.38;0.10;;;;;;;-0.24;38.25;102392.69;4961166;28;20034;-69
2023/02/26 07:22:43;;;;;;;2.63;0.10;;;;;;;-0.36;38.13;102398.34;4960114;28;20042;-77
2023/02/26 07:25:10;;;;;;;4.30;0.00;;;;;;;-0.23;38.15;102397.88;4946429;28;20526;-78
2023/02/26 07:27:36;;;;;;;3.22;0.60;;;;;;;-0.21;38.32;102403.94;4959417;28;20046;-72
2023/02/26 07:30:04;;;;;;;0.80;0.10;;;;;;;-0.30;38.53;102413.03;4958386;28;20154;-77
2023/02/26 07:32:30;;;;;;;1.75;0.32;;;;;;;0.48;37.38;102417.84;4962241;28;20427;-74
2023/02/26 07:34:55;;;;;;;1.77;0.00;;;;;;;2.10;34.62;102413.06;4946859;28;20106;-70
2023/02/26 07:37:21;;;;;;;1.30;0.10;;;;;;;4.29;30.80;102409.56;4953566;28;20092;-76
2023/02/26 07:39:47;;;;;;;5.20;0.90;;;;;;;5.37;28.97;102410.50;4959750;28;20078;-71
2023/02/26 07:42:12;;;;;;;0.70;0.10;;;;;;;5.80;28.10;102414.22;4954245;28;20185;-71
2023/02/26 07:44:40;;;;;;;0.32;0.00;;;;;;;6.74;26.74;102413.66;4955487;28;20031;-72
2023/02/26 07:47:06;;;;;;;0.80;0.20;;;;;;;7.27;25.97;102426.63;4952942;28;20054;-71
2023/02/26 07:49:32;;;;;;;0.28;0.10;;;;;;;7.19;26.33;102428.34;4955770;28;20326;-71
2023/02/26 07:51:58;;;;;;;0.85;0.10;;;;;;;6.85;25.84;102427.50;4954674;28;20042;-71
2023/02/26 07:54:26;;;;;;;3.33;0.10;;;;;;;7.40;25.19;102430.09;4953121;28;20120;-71
2023/02/26 07:56:52;;;;;;;0.77;0.08;;;;;;;7.81;24.93;102429.13;4955052;28;20026;-71
2023/02/26 07:59:17;;;;;;;2.97;0.10;;;;;;;7.42;25.41;102446.56;4952745;28;20471;-71
2023/02/26 08:01:43;;;;;;;1.13;0.10;;;;;;;7.86;25.51;102442.97;4971987;28;20370;-71
2023/02/26 08:04:09;;;;;;;1.65;0.20;;;;;;;8.44;24.35;102441.84;4955782;28;20566;-71
2023/02/26 08:06:34;;;;;;;1.40;0.05;;;;;;;8.21;24.47;102448.94;4957467;28;20554;-70
2023/02/26 08:09:01;;;;;;;2.95;0.47;;;;;;;9.05;23.99;102442.28;4954836;28;20047;-72
2023/02/26 08:11:27;;;;;;;10.82;4.20;;;;;;;9.25;23.10;102442.13;4954865;28;20117;-71
2023/02/26 08:13:52;;;;;;;3.05;1.20;;;;;;;9.02;23.53;102444.94;4957232;28;20383;-72
2023/02/26 08:16:18;;;;;;;4.50;0.20;;;;;;;9.47;22.68;102446.25;4952032;28;20123;-71
2023/02/26 08:18:44;;;;;;;4.20;0.30;;;;;;;9.24;23.02;102456.91;4958093;28;21032;-72
2023/02/26 08:21:10;;;;;;;2.25;0.30;;;;;;;9.36;23.29;102453.31;4943246;28;20497;-72
2023/02/26 08:23:36;;;;;;;0.77;0.22;;;;;;;9.47;23.08;102454.06;4954558;28;20047;-71
2023/02/26 08:26:04;;;;;;;0.85;0.10;;;;;;;9.45;23.00;102449.75;4954364;28;20508;-69
2023/02/26 08:28:31;;;;;;;1.52;0.30;;;;;;;9.53;22.76;102455.78;4953429;28;20594;-70
2023/02/26 08:30:57;;;;;;;1.02;0.10;;;;;;;9.12;23.48;102457.91;4953165;28;20037;-69
2023/02/26 08:33:25;;;;;;;1.73;0.22;;;;;;;9.07;23.92;102464.88;4952117;28;20043;-70
2023/02/26 08:35:52;;;;;;;2.03;0.10;;;;;;;8.65;24.52;102479.94;4953965;28;20705;-70
2023/02/26 08:38:18;;;;;;;1.00;0.10;;;;;;;8.47;24.57;102467.91;4968952;28;20042;-69
2023/02/26 08:40:44;;;;;;;1.35;0.10;;;;;;;8.13;25.35;102480.19;4959241;28;20117;-70
2023/02/26 08:43:11;;;;;;;3.33;0.10;;;;;;;7.57;26.05;102479.50;4955632;28;20495;-70
2023/02/26 08:45:37;;;;;;;1.35;0.05;;;;;;;7.65;25.30;102480.34;4972056;28;20023;-70
2023/02/26 08:48:03;;;;;;;0.38;0.10;;;;;;;7.20;25.98;102489.03;4957549;28;20053;-69
2023/02/26 08:50:28;;;;;;;4.32;0.10;;;;;;;7.45;25.56;102487.31;4957819;28;20126;-70
2023/02/26 08:52:54;;;;;;;2.15;0.75;;;;;;;6.46;26.08;102497.59;4946563;28;20054;-70
2023/02/26 08:55:20;;;;;;;1.73;0.10;;;;;;;6.89;25.72;102495.09;4958168;28;20042;-70
2023/02/26 08:57:45;;;;;;;0.20;0.10;;;;;;;6.68;26.64;102497.63;4963184;28;20049;-69
2023/02/26 09:00:15;;;;;;;0.75;0.30;;;;;;;6.17;26.85;102501.75;4955030;28;20133;-69
2023/02/26 09:02:40;;;;;;;1.70;0.10;;;;;;;6.33;26.50;102514.00;4954612;28;20156;-69
2023/02/26 09:05:06;;;;;;;1.20;0.13;;;;;;;6.17;27.17;102513.03;4957175;28;20839;-69
2023/02/26 09:07:32;;;;;;;0.82;0.10;;;;;;;5.62;27.41;102530.88;4957363;28;20043;-69
2023/02/26 09:09:57;;;;;;;2.30;0.08;;;;;;;5.09;29.08;102532.16;4972549;28;20053;-68
2023/02/26 09:12:23;;;;;;;1.85;0.20;;;;;;;4.87;29.42;102527.56;4953867;28;20110;-69
2023/02/26 09:14:48;;;;;;;2.28;0.10;;;;;;;4.81;29.34;102537.03;4960463;28;20042;-68
2023/02/26 09:17:14;;;;;;;0.20;0.00;;;;;;;4.93;29.44;102538.03;4959287;28;20058;-68
2023/02/26 09:19:39;;;;;;;2.47;0.50;;;;;;;5.01;29.92;102536.38;4957120;28;20712;-70
2023/02/26 09:22:05;;;;;;;2.90;0.60;;;;;;;4.94;29.18;102550.13;4957652;28;20054;-69
2023/02/26 09:24:30;;;;;;;1.08;0.32;;;;;;;4.23;30.59;102541.50;4955733;28;20046;-69
2023/02/26 09:26:56;;;;;;;2.53;0.77;;;;;;;4.75;30.01;102546.47;4962179;28;20042;-69
2023/02/26 09:29:21;;;;;;;2.38;1.05;;;;;;;5.15;29.54;102547.75;4972590;28;20181;-69
2023/02/26 09:31:47;;;;;;;5.32;2.67;;;;;;;5.34;30.18;102547.91;4940877;28;20038;-69
2023/02/26 09:34:12;;;;;;;2.05;0.40;;;;;;;5.38;30.28;102558.34;4948427;28;20129;-68
2023/02/26 09:36:38;;;;;;;5.43;0.95;;;;;;;5.74;29.80;102556.03;4954546;28;20046;-70
2023/02/26 09:39:04;;;;;;;4.28;0.85;;;;;;;5.73;29.22;102551.72;4957811;28;20046;-69
2023/02/26 09:41:38;;;;;;;2.38;0.80;;;;;;;6.29;28.95;102556.41;4944010;28;20806;-69
2023/02/26 09:44:27;;;;;;;0.68;0.20;;;;;;;5.62;29.03;102555.06;4955962;28;20056;-69
2023/02/26 09:46:59;;;;;;;2.22;0.50;;;;;;;5.87;28.49;102556.13;4948655;28;20126;-69
2023/02/26 09:49:28;;;;;;;1.63;0.60;;;;;;;4.77;29.47;102561.16;4949164;28;20538;-69
2023/02/26 09:52:02;;;;;;;3.65;0.77;;;;;;;4.98;29.76;102567.47;4965922;28;20043;-69
2023/02/26 09:54:35;;;;;;;5.20;2.25;;;;;;;5.22;29.66;102566.84;4957815;28;20042;-68
2023/02/26 09:57:03;;;;;;;3.78;0.52;;;;;;;5.40;29.92;102572.19;4957505;28;20027;-69
2023/02/26 09:59:33;;;;;;;9.43;3.55;;;;;;;4.54;29.96;102580.72;4951601;28;20411;-69
2023/02/26 10:02:41;;;;;;;10.18;2.88;;;;;;;4.28;31.23;102581.25;4952105;28;20101;-69
2023/02/26 10:05:18;;;;;;;12.98;4.85;;;;;;;5.14;30.51;102579.72;4931718;28;20050;-69
2023/02/26 10:07:52;;;;;;;11.00;4.55;;;;;;;5.24;29.94;102583.28;4950476;28;20440;-69
2023/02/26 10:10:46;;;;;;;1.33;0.30;;;;;;;4.99;30.63;102582.16;4951275;28;20035;-69
2023/02/26 10:13:31;;;;;;;1.63;0.10;;;;;;;5.32;30.56;102589.38;4934245;28;20509;-68
2023/02/26 10:16:04;;;;;;;1.33;0.10;;;;;;;5.43;29.62;102592.09;4943616;28;20073;-69
2023/02/26 10:18:33;;;;;;;0.30;0.10;;;;;;;4.80;30.14;102581.91;4947647;28;21307;-68
2023/02/26 10:21:12;;;;;;;1.95;0.10;;;;;;;4.65;31.60;102589.50;4952565;28;20226;-68
2023/02/26 10:23:47;;;;;;;1.83;0.10;;;;;;;4.52;31.03;102583.31;4949927;28;20054;-69
2023/02/26 10:26:21;;;;;;;1.35;0.40;;;;;;;5.64;30.47;102591.41;4950193;28;20053;-70
2023/02/26 10:29:03;;;;;;;3.67;0.35;;;;;;;5.70;29.69;102593.19;4966377;28;20122;-71
2023/02/26 10:31:43;;;;;;;1.10;0.00;;;;;;;5.50;29.26;102583.50;4954869;28;20269;-69
2023/02/26 10:34:35;;;;;;;5.57;0.13;;;;;;;5.34;30.99;102594.59;4951684;28;20673;-70
2023/02/26 10:37:14;;;;;;;2.35;0.10;;;;;;;5.50;31.50;102595.59;4959563;28;20038;-70
2023/02/26 10:39:55;;;;;;;2.83;0.43;;;;;;;5.58;31.40;102612.97;4952093;28;20130;-70
2023/02/26 10:42:29;;;;;;;2.78;0.20;;;;;;;4.67;29.25;102605.06;4947442;28;20641;-69
2023/02/26 10:45:24;;;;;;;0.75;0.05;;;;;;;5.14;29.25;102604.75;4952949;28;20534;-69
2023/02/26 10:48:13;;;;;;;0.88;0.15;;;;;;;5.24;29.52;102607.47;4948313;28;20061;-69
2023/02/26 10:50:47;;;;;;;1.88;0.10;;;;;;;5.67;30.16;102612.19;4964759;28;20027;-69
2023/02/26 10:53:12;;;;;;;2.47;0.35;;;;;;;5.61;29.73;102614.72;4955808;28;20042;-69
2023/02/26 10:55:47;;;;;;;1.08;0.13;;;;;;;6.03;29.45;102614.19;4947241;28;20042;-69
2023/02/26 10:58:21;;;;;;;1.45;0.30;;;;;;;5.95;28.70;102613.28;4945856;28;20043;-69
2023/02/26 11:00:52;;;;;;;2.10;0.10;;;;;;;5.58;29.05;102617.28;4969853;28;20035;-69
2023/02/26 11:03:19;;;;;;;6.97;0.55;;;;;;;5.42;29.40;102624.94;4963740;28;20070;-70
2023/02/26 11:05:45;;;;;;;1.48;0.10;;;;;;;5.34;28.98;102629.16;4964219;28;20054;-69
2023/02/26 11:08:24;;;;;;;1.05;0.30;;;;;;;5.43;28.61;102625.78;4948442;28;20478;-70
2023/02/26 11:10:52;;;;;;;0.88;0.03;;;;;;;4.76;29.32;102624.16;4957953;28;20403;-69
2023/02/26 11:13:21;;;;;;;1.15;0.00;;;;;;;4.39;30.52;102626.28;4950566;28;20199;-70
2023/02/26 11:15:51;;;;;;;0.45;0.00;;;;;;;4.43;30.94;102628.06;4950657;28;20049;-69
2023/02/26 11:18:22;;;;;;;2.35;0.10;;;;;;;5.18;30.31;102622.09;4944738;28;20050;-70
2023/02/26 11:20:51;;;;;;;0.35;0.00;;;;;;;5.25;31.62;102629.06;4950765;28;20103;-69
2023/02/26 11:23:21;;;;;;;0.20;0.00;;;;;;;5.77;30.27;102633.88;4947685;28;20078;-70
2023/02/26 11:25:53;;;;;;;6.30;0.20;;;;;;;5.13;30.41;102634.16;4957265;28;20133;-70
2023/02/26 11:28:20;;;;;;;;;;;;;;;4.59;31.87;102636.06;4946647;28;20082;-69
2023/02/26 11:30:47;;;;;;;1.90;0.30;;;;;;;5.01;31.15;102640.03;4950695;28;20429;-70
2023/02/26 11:33:43;;;;;;;0.73;0.20;;;;;;;5.16;31.78;102637.63;4948751;28;20790;-69
2023/02/26 11:36:13;;;;;;;1.23;0.03;;;;;;;5.07;30.21;102634.94;4949226;28;20121;-68
2023/02/26 11:38:39;;;;;;;3.80;0.08;;;;;;;4.64;31.51;102642.16;4946924;28;20043;-70
2023/02/26 11:41:06;;;;;;;0.22;0.00;;;;;;;4.75;32.53;102637.97;4949234;28;20142;-70
2023/02/26 11:43:41;;;;;;;2.35;0.08;;;;;;;5.85;31.21;102637.41;4945456;28;20046;-70
2023/02/26 11:46:08;;;;;;;0.20;0.00;;;;;;;5.95;29.50;102641.81;4937820;28;20264;-68